sensor_id;sensor_type;location;lat;lon;timestamp;P1;durP1;ratioP1;P2;durP2;ratioP2
66893;SDS011;53801;55.786;49.142;2024-02-23T00:00:49;2.97;;;0.60;;
66893;SDS011;53801;55.786;49.142;2024-02-23T00:03:14;1.50;;;0.45;;
66893;SDS011;53801;55.786;49.142;2024-02-23T00:05:40;1.73;;;0.70;;
66893;SDS011;53801;55.786;49.142;2024-02-23T00:08:06;6.27;;;1.07;;
66893;SDS011;53801;55.786;49.142;2024-02-23T00:10:32;1.55;;;0.35;;
66893;SDS011;53801;55.786;49.142;2024-02-23T00:12:57;3.80;;;0.43;;
66893;SDS011;53801;55.786;49.142;2024-02-23T00:15:23;2.28;;;0.40;;
66893;SDS011;53801;55.786;49.142;2024-02-23T00:17:50;2.97;;;0.63;;
66893;SDS011;53801;55.786;49.142;2024-02-23T00:20:16;1.33;;;0.32;;
66893;SDS011;53801;55.786;49.142;2024-02-23T00:22:41;4.18;;;0.50;;
66893;SDS011;53801;55.786;49.142;2024-02-23T00:25:07;2.73;;;0.67;;
66893;SDS011;53801;55.786;49.142;2024-02-23T00:27:33;1.95;;;0.40;;
66893;SDS011;53801;55.786;49.142;2024-02-23T00:29:58;4.17;;;0.70;;
66893;SDS011;53801;55.786;49.142;2024-02-23T00:32:24;1.33;;;0.20;;
66893;SDS011;53801;55.786;49.142;2024-02-23T00:34:49;1.83;;;0.95;;
66893;SDS011;53801;55.786;49.142;2024-02-23T00:37:15;5.47;;;2.80;;
66893;SDS011;53801;55.786;49.142;2024-02-23T00:39:40;1.97;;;0.30;;
66893;SDS011;53801;55.786;49.142;2024-02-23T00:42:06;2.10;;;0.70;;
66893;SDS011;53801;55.786;49.142;2024-02-23T00:44:31;0.93;;;0.38;;
66893;SDS011;53801;55.786;49.142;2024-02-23T00:46:57;1.50;;;0.43;;
66893;SDS011;53801;55.786;49.142;2024-02-23T00:49:26;0.47;;;0.10;;
66893;SDS011;53801;55.786;49.142;2024-02-23T00:51:52;3.90;;;0.57;;
66893;SDS011;53801;55.786;49.142;2024-02-23T00:54:17;3.97;;;1.08;;
66893;SDS011;53801;55.786;49.142;2024-02-23T00:56:43;3.10;;;0.40;;
66893;SDS011;53801;55.786;49.142;2024-02-23T00:59:08;1.37;;;0.40;;
66893;SDS011;53801;55.786;49.142;2024-02-23T01:01:34;3.22;;;0.40;;
66893;SDS011;53801;55.786;49.142;2024-02-23T01:03:59;2.45;;;0.55;;
66893;SDS011;53801;55.786;49.142;2024-02-23T01:06:25;0.93;;;0.27;;
66893;SDS011;53801;55.786;49.142;2024-02-23T01:08:52;2.00;;;0.57;;
66893;SDS011;53801;55.786;49.142;2024-02-23T01:11:18;1.40;;;0.40;;
66893;SDS011;53801;55.786;49.142;2024-02-23T01:13:43;4.10;;;0.50;;
66893;SDS011;53801;55.786;49.142;2024-02-23T01:16:09;2.58;;;0.50;;
66893;SDS011;53801;55.786;49.142;2024-02-23T01:18:34;1.73;;;0.70;;
66893;SDS011;53801;55.786;49.142;2024-02-23T01:21:00;0.70;;;0.37;;
66893;SDS011;53801;55.786;49.142;2024-02-23T01:23:25;2.50;;;0.63;;
66893;SDS011;53801;55.786;49.142;2024-02-23T01:25:51;1.75;;;0.52;;
66893;SDS011;53801;55.786;49.142;2024-02-23T01:28:17;2.40;;;0.73;;
66893;SDS011;53801;55.786;49.142;2024-02-23T01:30:42;3.58;;;0.80;;
66893;SDS011;53801;55.786;49.142;2024-02-23T01:33:08;1.13;;;0.40;;
66893;SDS011;53801;55.786;49.142;2024-02-23T01:35:33;1.90;;;0.57;;
66893;SDS011;53801;55.786;49.142;2024-02-23T01:37:59;1.90;;;0.50;;
66893;SDS011;53801;55.786;49.142;2024-02-23T01:40:24;1.33;;;0.43;;
66893;SDS011;53801;55.786;49.142;2024-02-23T01:43:00;1.17;;;0.40;;
66893;SDS011;53801;55.786;49.142;2024-02-23T01:45:26;3.20;;;1.00;;
66893;SDS011;53801;55.786;49.142;2024-02-23T01:47:51;2.20;;;0.47;;
66893;SDS011;53801;55.786;49.142;2024-02-23T01:50:17;1.23;;;0.30;;
66893;SDS011;53801;55.786;49.142;2024-02-23T01:52:42;4.87;;;0.70;;
66893;SDS011;53801;55.786;49.142;2024-02-23T01:55:08;3.08;;;0.47;;
66893;SDS011;53801;55.786;49.142;2024-02-23T01:57:34;1.50;;;0.32;;
66893;SDS011;53801;55.786;49.142;2024-02-23T01:59:59;1.40;;;0.40;;
66893;SDS011;53801;55.786;49.142;2024-02-23T02:02:25;6.90;;;0.47;;
66893;SDS011;53801;55.786;49.142;2024-02-23T02:04:50;3.00;;;1.00;;
66893;SDS011;53801;55.786;49.142;2024-02-23T02:07:16;1.83;;;0.67;;
66893;SDS011;53801;55.786;49.142;2024-02-23T02:09:43;1.40;;;0.60;;
66893;SDS011;53801;55.786;49.142;2024-02-23T02:12:08;2.07;;;0.90;;
66893;SDS011;53801;55.786;49.142;2024-02-23T02:14:34;2.00;;;0.73;;
66893;SDS011;53801;55.786;49.142;2024-02-23T02:17:00;3.83;;;0.70;;
66893;SDS011;53801;55.786;49.142;2024-02-23T02:19:25;4.30;;;0.67;;
66893;SDS011;53801;55.786;49.142;2024-02-23T02:21:51;1.85;;;0.50;;
66893;SDS011;53801;55.786;49.142;2024-02-23T02:24:16;2.97;;;0.63;;
66893;SDS011;53801;55.786;49.142;2024-02-23T02:26:42;2.60;;;0.60;;
66893;SDS011;53801;55.786;49.142;2024-02-23T02:29:10;2.25;;;0.65;;
66893;SDS011;53801;55.786;49.142;2024-02-23T02:31:36;1.45;;;0.32;;
66893;SDS011;53801;55.786;49.142;2024-02-23T02:34:03;3.63;;;1.10;;
66893;SDS011;53801;55.786;49.142;2024-02-23T02:36:29;1.73;;;0.47;;
66893;SDS011;53801;55.786;49.142;2024-02-23T02:38:54;1.50;;;0.20;;
66893;SDS011;53801;55.786;49.142;2024-02-23T02:41:20;1.50;;;0.32;;
66893;SDS011;53801;55.786;49.142;2024-02-23T02:43:48;2.70;;;0.55;;
66893;SDS011;53801;55.786;49.142;2024-02-23T02:46:13;2.13;;;0.57;;
66893;SDS011;53801;55.786;49.142;2024-02-23T02:48:39;2.22;;;0.40;;
66893;SDS011;53801;55.786;49.142;2024-02-23T02:51:04;2.70;;;0.40;;
66893;SDS011;53801;55.786;49.142;2024-02-23T02:53:29;4.70;;;0.63;;
66893;SDS011;53801;55.786;49.142;2024-02-23T02:55:55;2.63;;;1.08;;
66893;SDS011;53801;55.786;49.142;2024-02-23T02:58:21;1.77;;;0.57;;
66893;SDS011;53801;55.786;49.142;2024-02-23T03:00:46;1.00;;;0.33;;
66893;SDS011;53801;55.786;49.142;2024-02-23T03:03:12;2.27;;;0.70;;
66893;SDS011;53801;55.786;49.142;2024-02-23T03:05:38;0.88;;;0.10;;
66893;SDS011;53801;55.786;49.142;2024-02-23T03:08:03;1.90;;;0.50;;
66893;SDS011;53801;55.786;49.142;2024-02-23T03:10:29;1.90;;;0.50;;
66893;SDS011;53801;55.786;49.142;2024-02-23T03:12:54;4.50;;;0.73;;
66893;SDS011;53801;55.786;49.142;2024-02-23T03:15:20;2.03;;;0.50;;
66893;SDS011;53801;55.786;49.142;2024-02-23T03:17:45;0.70;;;0.20;;
66893;SDS011;53801;55.786;49.142;2024-02-23T03:20:11;0.50;;;0.20;;
66893;SDS011;53801;55.786;49.142;2024-02-23T03:22:37;2.13;;;0.68;;
66893;SDS011;53801;55.786;49.142;2024-02-23T03:25:03;2.17;;;1.07;;
66893;SDS011;53801;55.786;49.142;2024-02-23T03:27:34;1.40;;;0.60;;
66893;SDS011;53801;55.786;49.142;2024-02-23T03:29:59;2.55;;;1.00;;
66893;SDS011;53801;55.786;49.142;2024-02-23T03:32:25;2.83;;;0.43;;
66893;SDS011;53801;55.786;49.142;2024-02-23T03:34:51;1.90;;;0.70;;
66893;SDS011;53801;55.786;49.142;2024-02-23T03:37:16;3.17;;;0.95;;
66893;SDS011;53801;55.786;49.142;2024-02-23T03:39:42;4.63;;;0.57;;
66893;SDS011;53801;55.786;49.142;2024-02-23T03:42:08;2.47;;;1.23;;
66893;SDS011;53801;55.786;49.142;2024-02-23T03:44:33;3.45;;;0.80;;
66893;SDS011;53801;55.786;49.142;2024-02-23T03:46:59;2.53;;;0.50;;
66893;SDS011;53801;55.786;49.142;2024-02-23T03:49:24;2.00;;;0.50;;
66893;SDS011;53801;55.786;49.142;2024-02-23T03:51:50;3.47;;;0.80;;
66893;SDS011;53801;55.786;49.142;2024-02-23T03:54:15;2.03;;;1.00;;
66893;SDS011;53801;55.786;49.142;2024-02-23T03:56:41;1.47;;;0.60;;
66893;SDS011;53801;55.786;49.142;2024-02-23T03:59:07;3.72;;;1.25;;
66893;SDS011;53801;55.786;49.142;2024-02-23T04:01:36;2.28;;;0.47;;
66893;SDS011;53801;55.786;49.142;2024-02-23T04:04:02;1.58;;;0.45;;
66893;SDS011;53801;55.786;49.142;2024-02-23T04:06:27;0.93;;;0.30;;
66893;SDS011;53801;55.786;49.142;2024-02-23T04:08:53;2.07;;;0.50;;
66893;SDS011;53801;55.786;49.142;2024-02-23T04:11:18;1.67;;;0.50;;
66893;SDS011;53801;55.786;49.142;2024-02-23T04:13:44;0.80;;;0.30;;
66893;SDS011;53801;55.786;49.142;2024-02-23T04:16:09;2.10;;;0.45;;
66893;SDS011;53801;55.786;49.142;2024-02-23T04:18:35;1.83;;;0.55;;
66893;SDS011;53801;55.786;49.142;2024-02-23T04:21:00;2.13;;;0.47;;
66893;SDS011;53801;55.786;49.142;2024-02-23T04:23:32;2.00;;;0.40;;
66893;SDS011;53801;55.786;49.142;2024-02-23T04:25:58;2.97;;;0.60;;
66893;SDS011;53801;55.786;49.142;2024-02-23T04:28:24;4.72;;;0.98;;
66893;SDS011;53801;55.786;49.142;2024-02-23T04:30:51;3.20;;;0.47;;
66893;SDS011;53801;55.786;49.142;2024-02-23T04:33:17;1.58;;;0.52;;
66893;SDS011;53801;55.786;49.142;2024-02-23T04:35:43;5.30;;;0.90;;
66893;SDS011;53801;55.786;49.142;2024-02-23T04:38:08;3.13;;;0.77;;
66893;SDS011;53801;55.786;49.142;2024-02-23T04:40:34;1.38;;;0.47;;
66893;SDS011;53801;55.786;49.142;2024-02-23T04:42:59;1.63;;;0.35;;
66893;SDS011;53801;55.786;49.142;2024-02-23T04:45:25;3.27;;;0.70;;
66893;SDS011;53801;55.786;49.142;2024-02-23T04:47:50;1.77;;;0.80;;
66893;SDS011;53801;55.786;49.142;2024-02-23T04:50:15;2.77;;;0.80;;
66893;SDS011;53801;55.786;49.142;2024-02-23T04:52:41;2.85;;;0.75;;
66893;SDS011;53801;55.786;49.142;2024-02-23T04:55:06;2.08;;;0.60;;
66893;SDS011;53801;55.786;49.142;2024-02-23T04:57:32;2.30;;;0.37;;
66893;SDS011;53801;55.786;49.142;2024-02-23T05:00:00;2.13;;;0.70;;
66893;SDS011;53801;55.786;49.142;2024-02-23T05:02:26;1.95;;;0.47;;
66893;SDS011;53801;55.786;49.142;2024-02-23T05:04:54;2.40;;;0.80;;
66893;SDS011;53801;55.786;49.142;2024-02-23T05:07:19;2.27;;;1.10;;
66893;SDS011;53801;55.786;49.142;2024-02-23T05:09:45;5.90;;;1.33;;
66893;SDS011;53801;55.786;49.142;2024-02-23T05:12:10;3.80;;;0.80;;
66893;SDS011;53801;55.786;49.142;2024-02-23T05:14:39;3.30;;;0.90;;
66893;SDS011;53801;55.786;49.142;2024-02-23T05:17:04;3.60;;;0.93;;
66893;SDS011;53801;55.786;49.142;2024-02-23T05:19:30;3.22;;;1.05;;
66893;SDS011;53801;55.786;49.142;2024-02-23T05:21:55;3.67;;;1.13;;
66893;SDS011;53801;55.786;49.142;2024-02-23T05:24:21;5.90;;;1.13;;
66893;SDS011;53801;55.786;49.142;2024-02-23T05:29:49;5.57;;;0.60;;
66893;SDS011;53801;55.786;49.142;2024-02-23T05:32:14;3.03;;;0.90;;
66893;SDS011;53801;55.786;49.142;2024-02-23T05:34:41;9.07;;;1.83;;
66893;SDS011;53801;55.786;49.142;2024-02-23T05:37:08;1.38;;;0.52;;
66893;SDS011;53801;55.786;49.142;2024-02-23T05:39:34;6.80;;;0.77;;
66893;SDS011;53801;55.786;49.142;2024-02-23T05:41:59;4.70;;;0.90;;
66893;SDS011;53801;55.786;49.142;2024-02-23T05:44:25;4.15;;;0.65;;
66893;SDS011;53801;55.786;49.142;2024-02-23T05:46:54;3.23;;;0.80;;
66893;SDS011;53801;55.786;49.142;2024-02-23T05:49:20;4.88;;;1.55;;
66893;SDS011;53801;55.786;49.142;2024-02-23T05:51:46;4.30;;;1.50;;
66893;SDS011;53801;55.786;49.142;2024-02-23T05:54:11;3.70;;;0.97;;
66893;SDS011;53801;55.786;49.142;2024-02-23T05:56:36;3.60;;;0.90;;
66893;SDS011;53801;55.786;49.142;2024-02-23T05:59:02;2.30;;;0.85;;
66893;SDS011;53801;55.786;49.142;2024-02-23T06:01:54;4.68;;;1.35;;
66893;SDS011;53801;55.786;49.142;2024-02-23T06:04:40;5.23;;;0.80;;
66893;SDS011;53801;55.786;49.142;2024-02-23T06:10:00;2.25;;;0.90;;
66893;SDS011;53801;55.786;49.142;2024-02-23T06:12:26;3.65;;;1.05;;
66893;SDS011;53801;55.786;49.142;2024-02-23T06:14:52;5.07;;;0.88;;
66893;SDS011;53801;55.786;49.142;2024-02-23T06:17:17;3.60;;;1.05;;
66893;SDS011;53801;55.786;49.142;2024-02-23T06:19:43;2.97;;;0.60;;
66893;SDS011;53801;55.786;49.142;2024-02-23T06:22:08;4.60;;;1.20;;
66893;SDS011;53801;55.786;49.142;2024-02-23T06:24:36;2.92;;;0.93;;
66893;SDS011;53801;55.786;49.142;2024-02-23T06:27:01;6.13;;;1.40;;
66893;SDS011;53801;55.786;49.142;2024-02-23T06:29:28;6.28;;;1.88;;
66893;SDS011;53801;55.786;49.142;2024-02-23T06:31:54;5.43;;;1.17;;
66893;SDS011;53801;55.786;49.142;2024-02-23T06:34:19;4.87;;;1.57;;
66893;SDS011;53801;55.786;49.142;2024-02-23T06:36:45;4.00;;;1.30;;
66893;SDS011;53801;55.786;49.142;2024-02-23T06:39:10;4.57;;;1.53;;
66893;SDS011;53801;55.786;49.142;2024-02-23T06:41:37;5.22;;;1.35;;
66893;SDS011;53801;55.786;49.142;2024-02-23T06:44:04;5.22;;;1.80;;
66893;SDS011;53801;55.786;49.142;2024-02-23T06:46:29;2.58;;;1.33;;
66893;SDS011;53801;55.786;49.142;2024-02-23T06:48:55;4.87;;;1.77;;
66893;SDS011;53801;55.786;49.142;2024-02-23T06:51:21;5.65;;;2.38;;
66893;SDS011;53801;55.786;49.142;2024-02-23T06:53:46;6.83;;;1.77;;
66893;SDS011;53801;55.786;49.142;2024-02-23T06:56:12;2.37;;;0.90;;
66893;SDS011;53801;55.786;49.142;2024-02-23T06:58:38;3.60;;;1.52;;
66893;SDS011;53801;55.786;49.142;2024-02-23T07:01:04;3.78;;;1.02;;
66893;SDS011;53801;55.786;49.142;2024-02-23T07:03:32;3.33;;;1.00;;
66893;SDS011;53801;55.786;49.142;2024-02-23T07:05:58;5.35;;;1.92;;
66893;SDS011;53801;55.786;49.142;2024-02-23T07:08:23;3.10;;;1.33;;
66893;SDS011;53801;55.786;49.142;2024-02-23T07:10:49;3.47;;;1.27;;
66893;SDS011;53801;55.786;49.142;2024-02-23T07:13:14;4.72;;;1.15;;
66893;SDS011;53801;55.786;49.142;2024-02-23T07:15:40;3.57;;;1.37;;
66893;SDS011;53801;55.786;49.142;2024-02-23T07:18:05;3.83;;;1.40;;
66893;SDS011;53801;55.786;49.142;2024-02-23T07:20:35;4.47;;;1.40;;
66893;SDS011;53801;55.786;49.142;2024-02-23T07:23:00;2.50;;;1.13;;
66893;SDS011;53801;55.786;49.142;2024-02-23T07:25:26;3.13;;;1.43;;
66893;SDS011;53801;55.786;49.142;2024-02-23T07:27:51;10.37;;;1.80;;
66893;SDS011;53801;55.786;49.142;2024-02-23T07:30:17;5.28;;;1.77;;
66893;SDS011;53801;55.786;49.142;2024-02-23T07:32:43;3.90;;;1.00;;
66893;SDS011;53801;55.786;49.142;2024-02-23T07:35:09;4.82;;;1.65;;
66893;SDS011;53801;55.786;49.142;2024-02-23T07:37:34;6.93;;;1.63;;
66893;SDS011;53801;55.786;49.142;2024-02-23T07:40:00;4.80;;;2.03;;
66893;SDS011;53801;55.786;49.142;2024-02-23T07:42:25;5.03;;;1.07;;
66893;SDS011;53801;55.786;49.142;2024-02-23T07:44:52;6.15;;;1.77;;
66893;SDS011;53801;55.786;49.142;2024-02-23T07:47:18;5.97;;;1.80;;
66893;SDS011;53801;55.786;49.142;2024-02-23T07:49:43;9.70;;;1.55;;
66893;SDS011;53801;55.786;49.142;2024-02-23T07:52:09;5.20;;;1.53;;
66893;SDS011;53801;55.786;49.142;2024-02-23T07:54:34;5.77;;;2.00;;
66893;SDS011;53801;55.786;49.142;2024-02-23T07:57:00;9.57;;;2.57;;
66893;SDS011;53801;55.786;49.142;2024-02-23T07:59:25;7.95;;;1.95;;
66893;SDS011;53801;55.786;49.142;2024-02-23T08:01:51;4.57;;;1.27;;
66893;SDS011;53801;55.786;49.142;2024-02-23T08:04:17;4.75;;;1.70;;
66893;SDS011;53801;55.786;49.142;2024-02-23T08:06:42;5.50;;;1.75;;
66893;SDS011;53801;55.786;49.142;2024-02-23T08:09:08;6.07;;;2.20;;
66893;SDS011;53801;55.786;49.142;2024-02-23T08:11:34;3.00;;;1.15;;
66893;SDS011;53801;55.786;49.142;2024-02-23T08:13:59;4.97;;;1.63;;
66893;SDS011;53801;55.786;49.142;2024-02-23T08:16:25;7.20;;;1.60;;
66893;SDS011;53801;55.786;49.142;2024-02-23T08:18:51;6.70;;;2.25;;
66893;SDS011;53801;55.786;49.142;2024-02-23T08:21:16;6.17;;;2.13;;
66893;SDS011;53801;55.786;49.142;2024-02-23T08:23:43;6.93;;;2.25;;
66893;SDS011;53801;55.786;49.142;2024-02-23T08:26:09;4.67;;;1.43;;
66893;SDS011;53801;55.786;49.142;2024-02-23T08:28:35;8.57;;;2.08;;
66893;SDS011;53801;55.786;49.142;2024-02-23T08:31:00;5.90;;;2.33;;
66893;SDS011;53801;55.786;49.142;2024-02-23T08:33:26;3.45;;;1.52;;
66893;SDS011;53801;55.786;49.142;2024-02-23T08:35:52;5.87;;;1.70;;
66893;SDS011;53801;55.786;49.142;2024-02-23T08:38:18;6.13;;;2.08;;
66893;SDS011;53801;55.786;49.142;2024-02-23T08:40:44;8.10;;;2.20;;
66893;SDS011;53801;55.786;49.142;2024-02-23T08:43:10;10.25;;;2.78;;
66893;SDS011;53801;55.786;49.142;2024-02-23T08:45:36;5.68;;;2.22;;
66893;SDS011;53801;55.786;49.142;2024-02-23T08:48:01;5.60;;;2.30;;
66893;SDS011;53801;55.786;49.142;2024-02-23T08:50:28;6.45;;;1.85;;
66893;SDS011;53801;55.786;49.142;2024-02-23T08:52:54;6.18;;;1.42;;
66893;SDS011;53801;55.786;49.142;2024-02-23T08:55:22;6.45;;;1.98;;
66893;SDS011;53801;55.786;49.142;2024-02-23T08:57:48;5.80;;;1.83;;
66893;SDS011;53801;55.786;49.142;2024-02-23T09:00:14;5.47;;;1.87;;
66893;SDS011;53801;55.786;49.142;2024-02-23T09:02:40;5.22;;;2.10;;
66893;SDS011;53801;55.786;49.142;2024-02-23T09:05:08;5.40;;;1.80;;
66893;SDS011;53801;55.786;49.142;2024-02-23T09:07:33;7.95;;;2.17;;
66893;SDS011;53801;55.786;49.142;2024-02-23T09:09:59;6.82;;;1.92;;
66893;SDS011;53801;55.786;49.142;2024-02-23T09:12:24;5.97;;;1.90;;
66893;SDS011;53801;55.786;49.142;2024-02-23T09:14:51;6.53;;;1.98;;
66893;SDS011;53801;55.786;49.142;2024-02-23T09:17:16;6.27;;;2.50;;
66893;SDS011;53801;55.786;49.142;2024-02-23T09:19:43;6.78;;;2.20;;
66893;SDS011;53801;55.786;49.142;2024-02-23T09:22:09;5.23;;;1.93;;
66893;SDS011;53801;55.786;49.142;2024-02-23T09:24:34;6.85;;;1.92;;
66893;SDS011;53801;55.786;49.142;2024-02-23T09:27:00;4.97;;;1.85;;
66893;SDS011;53801;55.786;49.142;2024-02-23T09:29:27;8.57;;;2.40;;
66893;SDS011;53801;55.786;49.142;2024-02-23T09:31:52;6.53;;;1.83;;
66893;SDS011;53801;55.786;49.142;2024-02-23T09:34:18;7.23;;;1.57;;
66893;SDS011;53801;55.786;49.142;2024-02-23T09:36:43;6.28;;;1.80;;
66893;SDS011;53801;55.786;49.142;2024-02-23T09:39:09;4.40;;;1.43;;
66893;SDS011;53801;55.786;49.142;2024-02-23T09:41:34;4.17;;;1.50;;
66893;SDS011;53801;55.786;49.142;2024-02-23T09:44:01;4.97;;;1.52;;
66893;SDS011;53801;55.786;49.142;2024-02-23T09:46:27;4.07;;;1.60;;
66893;SDS011;53801;55.786;49.142;2024-02-23T09:48:53;5.27;;;1.73;;
66893;SDS011;53801;55.786;49.142;2024-02-23T09:51:20;4.45;;;1.63;;
66893;SDS011;53801;55.786;49.142;2024-02-23T09:53:46;5.53;;;1.80;;
66893;SDS011;53801;55.786;49.142;2024-02-23T09:56:12;5.53;;;1.80;;
66893;SDS011;53801;55.786;49.142;2024-02-23T09:58:42;4.28;;;1.40;;
66893;SDS011;53801;55.786;49.142;2024-02-23T10:01:09;5.18;;;1.83;;
66893;SDS011;53801;55.786;49.142;2024-02-23T10:03:37;7.68;;;1.58;;
66893;SDS011;53801;55.786;49.142;2024-02-23T10:06:03;5.13;;;1.70;;
66893;SDS011;53801;55.786;49.142;2024-02-23T10:08:30;7.85;;;1.90;;
66893;SDS011;53801;55.786;49.142;2024-02-23T10:10:55;7.78;;;1.98;;
66893;SDS011;53801;55.786;49.142;2024-02-23T10:13:24;11.02;;;2.55;;
66893;SDS011;53801;55.786;49.142;2024-02-23T10:15:53;5.70;;;1.60;;
66893;SDS011;53801;55.786;49.142;2024-02-23T10:18:20;5.80;;;2.00;;
66893;SDS011;53801;55.786;49.142;2024-02-23T10:20:46;8.25;;;2.28;;
66893;SDS011;53801;55.786;49.142;2024-02-23T10:23:12;2.92;;;1.05;;
66893;SDS011;53801;55.786;49.142;2024-02-23T10:25:38;4.87;;;1.53;;
66893;SDS011;53801;55.786;49.142;2024-02-23T10:28:06;5.78;;;1.45;;
66893;SDS011;53801;55.786;49.142;2024-02-23T10:30:32;8.27;;;1.85;;
66893;SDS011;53801;55.786;49.142;2024-02-23T10:32:58;5.00;;;1.80;;
66893;SDS011;53801;55.786;49.142;2024-02-23T10:35:24;5.72;;;1.70;;
66893;SDS011;53801;55.786;49.142;2024-02-23T10:37:50;5.30;;;1.60;;
66893;SDS011;53801;55.786;49.142;2024-02-23T10:40:16;4.87;;;1.40;;
66893;SDS011;53801;55.786;49.142;2024-02-23T10:42:43;5.90;;;1.20;;
66893;SDS011;53801;55.786;49.142;2024-02-23T10:45:12;3.53;;;1.30;;
66893;SDS011;53801;55.786;49.142;2024-02-23T10:47:39;6.75;;;1.60;;
66893;SDS011;53801;55.786;49.142;2024-02-23T10:50:08;7.00;;;1.73;;
66893;SDS011;53801;55.786;49.142;2024-02-23T10:52:34;4.73;;;1.60;;
66893;SDS011;53801;55.786;49.142;2024-02-23T10:55:00;4.57;;;1.42;;
66893;SDS011;53801;55.786;49.142;2024-02-23T10:57:30;8.73;;;2.42;;
66893;SDS011;53801;55.786;49.142;2024-02-23T10:59:56;7.75;;;1.55;;
66893;SDS011;53801;55.786;49.142;2024-02-23T11:02:22;4.63;;;1.30;;
66893;SDS011;53801;55.786;49.142;2024-02-23T11:04:49;5.15;;;1.55;;
66893;SDS011;53801;55.786;49.142;2024-02-23T11:07:17;4.47;;;1.15;;
66893;SDS011;53801;55.786;49.142;2024-02-23T11:09:48;8.00;;;2.40;;
66893;SDS011;53801;55.786;49.142;2024-02-23T11:12:21;3.93;;;1.47;;
66893;SDS011;53801;55.786;49.142;2024-02-23T11:14:56;8.02;;;1.42;;
66893;SDS011;53801;55.786;49.142;2024-02-23T11:17:21;6.50;;;2.65;;
66893;SDS011;53801;55.786;49.142;2024-02-23T11:19:49;4.43;;;1.33;;
66893;SDS011;53801;55.786;49.142;2024-02-23T11:22:15;5.90;;;1.70;;
66893;SDS011;53801;55.786;49.142;2024-02-23T11:24:43;4.68;;;1.05;;
66893;SDS011;53801;55.786;49.142;2024-02-23T11:27:19;5.90;;;2.10;;
66893;SDS011;53801;55.786;49.142;2024-02-23T11:29:45;3.45;;;1.08;;
66893;SDS011;53801;55.786;49.142;2024-02-23T11:32:15;3.85;;;1.30;;
66893;SDS011;53801;55.786;49.142;2024-02-23T11:34:41;5.72;;;1.33;;
66893;SDS011;53801;55.786;49.142;2024-02-23T11:37:09;7.77;;;2.13;;
66893;SDS011;53801;55.786;49.142;2024-02-23T11:39:35;8.27;;;1.80;;
66893;SDS011;53801;55.786;49.142;2024-02-23T11:42:05;7.00;;;1.33;;
66893;SDS011;53801;55.786;49.142;2024-02-23T11:44:54;4.32;;;1.55;;
66893;SDS011;53801;55.786;49.142;2024-02-23T11:47:24;4.07;;;1.63;;
66893;SDS011;53801;55.786;49.142;2024-02-23T11:49:53;4.30;;;1.40;;
66893;SDS011;53801;55.786;49.142;2024-02-23T11:52:31;5.03;;;1.45;;
66893;SDS011;53801;55.786;49.142;2024-02-23T11:55:00;6.72;;;1.70;;
66893;SDS011;53801;55.786;49.142;2024-02-23T11:57:41;12.52;;;1.67;;
66893;SDS011;53801;55.786;49.142;2024-02-23T12:02:56;4.38;;;1.55;;
66893;SDS011;53801;55.786;49.142;2024-02-23T12:05:53;6.75;;;1.35;;
66893;SDS011;53801;55.786;49.142;2024-02-23T12:08:20;7.30;;;1.90;;
66893;SDS011;53801;55.786;49.142;2024-02-23T12:10:50;2.80;;;0.93;;
66893;SDS011;53801;55.786;49.142;2024-02-23T12:13:15;6.63;;;1.60;;
66893;SDS011;53801;55.786;49.142;2024-02-23T12:15:41;4.47;;;1.27;;
66893;SDS011;53801;55.786;49.142;2024-02-23T12:18:06;6.75;;;1.30;;
66893;SDS011;53801;55.786;49.142;2024-02-23T12:20:35;6.03;;;1.30;;
66893;SDS011;53801;55.786;49.142;2024-02-23T12:23:04;3.83;;;1.08;;
66893;SDS011;53801;55.786;49.142;2024-02-23T12:25:31;5.50;;;1.13;;
66893;SDS011;53801;55.786;49.142;2024-02-23T12:27:58;6.18;;;1.80;;
66893;SDS011;53801;55.786;49.142;2024-02-23T12:30:25;5.33;;;1.37;;
66893;SDS011;53801;55.786;49.142;2024-02-23T12:32:51;4.93;;;1.08;;
66893;SDS011;53801;55.786;49.142;2024-02-23T12:35:17;7.38;;;1.02;;
66893;SDS011;53801;55.786;49.142;2024-02-23T12:37:43;6.30;;;1.70;;
66893;SDS011;53801;55.786;49.142;2024-02-23T12:40:10;3.80;;;1.05;;
66893;SDS011;53801;55.786;49.142;2024-02-23T12:42:36;4.40;;;1.07;;
66893;SDS011;53801;55.786;49.142;2024-02-23T12:45:01;4.43;;;2.00;;
66893;SDS011;53801;55.786;49.142;2024-02-23T12:47:27;2.67;;;1.03;;
66893;SDS011;53801;55.786;49.142;2024-02-23T12:49:53;12.35;;;1.45;;
66893;SDS011;53801;55.786;49.142;2024-02-23T12:52:19;4.00;;;1.13;;
66893;SDS011;53801;55.786;49.142;2024-02-23T12:54:47;4.03;;;1.17;;
66893;SDS011;53801;55.786;49.142;2024-02-23T12:57:12;4.20;;;1.08;;
66893;SDS011;53801;55.786;49.142;2024-02-23T12:59:38;3.90;;;1.03;;
66893;SDS011;53801;55.786;49.142;2024-02-23T13:02:03;4.53;;;1.47;;
66893;SDS011;53801;55.786;49.142;2024-02-23T13:04:30;3.47;;;0.90;;
66893;SDS011;53801;55.786;49.142;2024-02-23T13:06:55;5.87;;;1.80;;
66893;SDS011;53801;55.786;49.142;2024-02-23T13:09:23;4.57;;;0.85;;
66893;SDS011;53801;55.786;49.142;2024-02-23T13:11:49;4.37;;;1.10;;
66893;SDS011;53801;55.786;49.142;2024-02-23T13:14:14;1.88;;;0.73;;
66893;SDS011;53801;55.786;49.142;2024-02-23T13:16:45;5.23;;;0.97;;
66893;SDS011;53801;55.786;49.142;2024-02-23T13:19:10;3.72;;;1.13;;
66893;SDS011;53801;55.786;49.142;2024-02-23T13:21:36;2.47;;;0.87;;
66893;SDS011;53801;55.786;49.142;2024-02-23T13:24:01;6.77;;;1.60;;
66893;SDS011;53801;55.786;49.142;2024-02-23T13:26:27;3.20;;;0.93;;
66893;SDS011;53801;55.786;49.142;2024-02-23T13:28:52;3.90;;;0.90;;
66893;SDS011;53801;55.786;49.142;2024-02-23T13:31:18;3.13;;;1.00;;
66893;SDS011;53801;55.786;49.142;2024-02-23T13:33:44;4.50;;;1.17;;
66893;SDS011;53801;55.786;49.142;2024-02-23T13:36:10;2.70;;;0.85;;
66893;SDS011;53801;55.786;49.142;2024-02-23T13:38:37;5.45;;;1.10;;
66893;SDS011;53801;55.786;49.142;2024-02-23T13:41:05;6.82;;;1.20;;
66893;SDS011;53801;55.786;49.142;2024-02-23T13:43:32;3.95;;;0.98;;
66893;SDS011;53801;55.786;49.142;2024-02-23T13:45:59;7.73;;;1.37;;
66893;SDS011;53801;55.786;49.142;2024-02-23T13:48:24;5.38;;;1.50;;
66893;SDS011;53801;55.786;49.142;2024-02-23T13:50:50;6.03;;;1.00;;
66893;SDS011;53801;55.786;49.142;2024-02-23T13:53:15;6.22;;;1.38;;
66893;SDS011;53801;55.786;49.142;2024-02-23T13:55:41;3.88;;;0.82;;
66893;SDS011;53801;55.786;49.142;2024-02-23T13:58:10;4.88;;;1.25;;
66893;SDS011;53801;55.786;49.142;2024-02-23T14:00:35;4.67;;;1.00;;
66893;SDS011;53801;55.786;49.142;2024-02-23T14:03:01;4.72;;;1.30;;
66893;SDS011;53801;55.786;49.142;2024-02-23T14:05:27;3.75;;;1.70;;
66893;SDS011;53801;55.786;49.142;2024-02-23T14:07:52;5.45;;;0.95;;
66893;SDS011;53801;55.786;49.142;2024-02-23T14:10:21;9.70;;;1.30;;
66893;SDS011;53801;55.786;49.142;2024-02-23T14:12:46;6.68;;;1.05;;
66893;SDS011;53801;55.786;49.142;2024-02-23T14:15:15;8.13;;;1.40;;
66893;SDS011;53801;55.786;49.142;2024-02-23T14:17:42;4.93;;;1.45;;
66893;SDS011;53801;55.786;49.142;2024-02-23T14:20:08;5.63;;;2.27;;
66893;SDS011;53801;55.786;49.142;2024-02-23T14:22:34;5.25;;;1.65;;
66893;SDS011;53801;55.786;49.142;2024-02-23T14:25:00;1.97;;;0.90;;
66893;SDS011;53801;55.786;49.142;2024-02-23T14:27:25;6.00;;;1.60;;
66893;SDS011;53801;55.786;49.142;2024-02-23T14:29:52;3.13;;;1.33;;
66893;SDS011;53801;55.786;49.142;2024-02-23T14:32:18;4.05;;;0.63;;
66893;SDS011;53801;55.786;49.142;2024-02-23T14:34:43;4.43;;;1.17;;
66893;SDS011;53801;55.786;49.142;2024-02-23T14:37:09;4.13;;;1.20;;